createdAt,value
2023-04-02T00:01:16.547Z,14.45
2023-04-02T00:03:44.499Z,14.45
2023-04-02T00:06:40.467Z,15.98
2023-04-02T00:09:14.203Z,16.30
2023-04-02T00:12:15.511Z,17.05
2023-04-02T00:14:49.550Z,15.15
2023-04-02T00:17:17.267Z,11.63
2023-04-02T00:20:08.228Z,16.67
2023-04-02T00:22:44.056Z,8.48
2023-04-02T00:25:14.079Z,10.65
2023-04-02T00:27:42.289Z,15.25
2023-04-02T00:30:13.128Z,11.88
2023-04-02T00:32:40.940Z,16.13
2023-04-02T00:35:18.807Z,15.43
2023-04-02T00:37:46.597Z,8.60
2023-04-02T00:40:24.813Z,13.85
2023-04-02T00:42:55.721Z,11.65
2023-04-02T00:45:31.968Z,14.10
2023-04-02T00:48:13.222Z,14.57
2023-04-02T00:50:42.899Z,12.32
2023-04-02T00:53:18.843Z,9.90
2023-04-02T00:55:46.451Z,17.88
2023-04-02T00:58:35.609Z,13.52
2023-04-02T01:01:04.557Z,17.52
2023-04-02T01:03:36.388Z,17.48
2023-04-02T01:06:12.826Z,12.73
2023-04-02T01:08:55.809Z,11.35
2023-04-02T01:11:46.503Z,16.52
2023-04-02T01:14:44.041Z,12.02
2023-04-02T01:17:38.922Z,15.20
2023-04-02T01:20:37.384Z,14.30
2023-04-02T01:23:11.493Z,11.80
2023-04-02T01:25:38.882Z,16.00
2023-04-02T01:28:19.758Z,12.13
2023-04-02T01:30:56.832Z,13.63
2023-04-02T01:33:33.785Z,12.07
2023-04-02T01:36:39.013Z,12.35
2023-04-02T01:39:12.639Z,10.27
2023-04-02T01:41:43.882Z,10.48
2023-04-02T01:44:18.997Z,9.00
2023-04-02T01:46:49.111Z,10.60
2023-04-02T01:49:21.397Z,17.45
2023-04-02T01:51:56.818Z,13.23
2023-04-02T01:54:28.931Z,10.43
2023-04-02T01:56:59.423Z,8.15
2023-04-02T01:59:29.009Z,9.38
2023-04-02T02:02:06.706Z,10.90
2023-04-02T02:04:37.589Z,12.25
2023-04-02T02:07:15.058Z,13.18
2023-04-02T02:09:44.985Z,12.35
2023-04-02T02:12:16.219Z,14.57
2023-04-02T02:14:52.261Z,13.43
2023-04-02T02:17:34.658Z,9.48
2023-04-02T02:20:12.213Z,12.25
2023-04-02T02:22:46.299Z,10.90
2023-04-02T02:25:24.217Z,11.18
2023-04-02T02:28:07.932Z,12.90
2023-04-02T02:30:58.646Z,11.73
2023-04-02T02:33:48.953Z,16.13
2023-04-02T02:36:27.239Z,13.43
2023-04-02T02:38:57.682Z,8.65
2023-04-02T02:42:04.352Z,11.33
2023-04-02T02:44:44.392Z,11.25
2023-04-02T02:47:14.462Z,10.52
2023-04-02T02:49:45.898Z,9.55
2023-04-02T02:52:35.959Z,11.38
2023-04-02T02:55:19.624Z,13.85
2023-04-02T02:58:09.047Z,11.45
2023-04-02T03:00:45.760Z,8.52
2023-04-02T03:03:23.246Z,9.13
2023-04-02T03:05:57.882Z,11.02
2023-04-02T03:09:02.312Z,17.50
2023-04-02T03:11:53.666Z,11.40
2023-04-02T03:14:40.102Z,6.47
2023-04-02T03:17:21.398Z,13.35
2023-04-02T03:20:17.553Z,8.48
2023-04-02T03:23:04.022Z,8.45
2023-04-02T03:25:50.585Z,10.35
2023-04-02T03:28:23.068Z,10.32
2023-04-02T03:30:58.097Z,11.82
2023-04-02T03:36:13.062Z,8.25
2023-04-02T03:41:32.768Z,7.30
2023-04-02T03:46:42.070Z,7.50
2023-04-02T03:49:40.978Z,10.98
2023-04-02T03:52:18.117Z,8.35
2023-04-02T03:54:59.684Z,11.18
2023-04-02T03:57:42.390Z,11.38
2023-04-02T04:00:28.956Z,9.73
2023-04-02T04:03:05.141Z,13.25
2023-04-02T04:08:08.856Z,8.07
2023-04-02T04:10:36.512Z,10.75
2023-04-02T04:13:18.566Z,9.25
2023-04-02T04:15:46.186Z,17.02
2023-04-02T04:18:49.220Z,9.00
2023-04-02T04:21:40.163Z,8.75
2023-04-02T04:24:23.305Z,10.43
2023-04-02T04:27:03.975Z,8.50
2023-04-02T04:29:54.132Z,13.82
2023-04-02T04:32:32.050Z,6.07
2023-04-02T04:35:23.505Z,9.85
2023-04-02T04:38:07.752Z,10.27
2023-04-02T04:40:41.846Z,9.48
2023-04-02T04:43:18.264Z,14.43
2023-04-02T04:45:58.248Z,7.75
2023-04-02T04:49:14.111Z,7.93
2023-04-02T04:51:48.090Z,7.22
2023-04-02T04:54:17.108Z,9.25
2023-04-02T04:56:51.733Z,8.85
2023-04-02T04:59:25.813Z,9.13
2023-04-02T05:01:57.353Z,10.27
2023-04-02T05:04:33.593Z,8.38
2023-04-02T05:07:07.605Z,10.93
2023-04-02T05:10:02.442Z,7.93
2023-04-02T05:12:54.788Z,10.80
2023-04-02T05:15:54.935Z,8.00
2023-04-02T05:18:34.812Z,12.65
2023-04-02T05:21:14.273Z,5.72
2023-04-02T05:23:45.420Z,5.82
2023-04-02T05:26:25.252Z,5.32
2023-04-02T05:28:59.694Z,6.75
2023-04-02T05:33:58.914Z,10.48
2023-04-02T05:36:29.609Z,10.32
2023-04-02T05:39:00.684Z,6.50
2023-04-02T05:41:47.578Z,9.77
2023-04-02T05:44:43.056Z,6.43
2023-04-02T05:47:22.859Z,6.28
2023-04-02T05:50:05.698Z,6.15
2023-04-02T05:52:43.800Z,8.07
2023-04-02T05:55:17.224Z,4.07
2023-04-02T05:58:21.322Z,9.20
2023-04-02T06:01:15.612Z,7.07
2023-04-02T06:04:28.970Z,9.52
2023-04-02T06:07:16.672Z,4.88
2023-04-02T06:10:00.709Z,3.78
2023-04-02T06:12:35.833Z,8.55
2023-04-02T06:15:06.783Z,6.55
2023-04-02T06:17:47.059Z,4.40
2023-04-02T06:20:17.748Z,6.38
2023-04-02T06:22:52.052Z,7.65
2023-04-02T06:25:28.360Z,7.25
2023-04-02T06:27:59.861Z,11.07
2023-04-02T06:30:38.737Z,6.05
2023-04-02T06:33:08.077Z,5.38
2023-04-02T06:35:40.602Z,4.43
2023-04-02T06:38:20.358Z,5.82
2023-04-02T06:40:55.840Z,5.63
2023-04-02T06:43:40.199Z,4.85
2023-04-02T06:46:46.979Z,7.80
2023-04-02T06:49:40.368Z,6.78
2023-04-02T06:52:20.416Z,6.97
2023-04-02T06:54:48.662Z,8.07
2023-04-02T06:57:17.522Z,5.72
2023-04-02T06:59:47.703Z,7.32
2023-04-02T07:02:41.023Z,9.40
2023-04-02T07:05:11.927Z,5.20
2023-04-02T07:07:44.829Z,7.18
2023-04-02T07:10:13.342Z,12.02
2023-04-02T07:12:40.826Z,10.13
2023-04-02T07:15:16.306Z,12.63
2023-04-02T07:17:43.999Z,7.68
2023-04-02T07:20:32.741Z,10.68
2023-04-02T07:23:04.552Z,8.95
2023-04-02T07:25:31.909Z,6.38
2023-04-02T07:27:59.578Z,5.22
2023-04-02T07:30:27.008Z,6.80
2023-04-02T07:32:54.643Z,6.15
2023-04-02T07:35:22.776Z,11.77
2023-04-02T07:37:50.611Z,4.35
2023-04-02T07:40:21.952Z,8.38
2023-04-02T07:42:49.999Z,10.77
2023-04-02T07:45:17.497Z,12.95
2023-04-02T07:47:45.112Z,7.95
2023-04-02T07:50:12.860Z,6.82
2023-04-02T07:52:44.677Z,8.13
2023-04-02T07:55:14.036Z,6.43
2023-04-02T07:57:49.343Z,8.43
2023-04-02T08:00:17.886Z,6.90
2023-04-02T08:02:45.908Z,6.72
2023-04-02T08:05:13.492Z,6.43
2023-04-02T08:07:41.713Z,5.78
2023-04-02T08:10:11.768Z,6.72
2023-04-02T08:12:39.194Z,5.63
2023-04-02T08:15:07.374Z,8.35
2023-04-02T08:17:34.797Z,8.00
2023-04-02T08:20:02.313Z,5.88
2023-04-02T08:22:30.621Z,11.75
2023-04-02T08:24:58.169Z,4.35
2023-04-02T08:27:26.378Z,6.72
2023-04-02T08:29:53.811Z,5.63
2023-04-02T08:32:22.088Z,7.45
2023-04-02T08:34:50.078Z,8.07
2023-04-02T08:37:18.499Z,5.93
2023-04-02T08:39:46.640Z,6.88
2023-04-02T08:42:43.123Z,9.45
2023-04-02T08:45:24.940Z,6.97
2023-04-02T08:48:09.292Z,5.70
2023-04-02T08:50:42.235Z,6.55
2023-04-02T08:53:45.033Z,6.32
2023-04-02T08:56:31.018Z,8.93
2023-04-02T08:59:02.820Z,5.95
2023-04-02T09:01:53.100Z,8.60
2023-04-02T09:04:23.449Z,6.20
2023-04-02T09:06:53.664Z,7.45
2023-04-02T09:09:22.371Z,4.63
2023-04-02T09:11:54.163Z,6.80
2023-04-02T09:14:45.763Z,6.85
2023-04-02T09:17:18.892Z,12.45
2023-04-02T09:19:58.623Z,10.77
2023-04-02T09:22:28.446Z,9.68
2023-04-02T09:25:01.600Z,7.97
2023-04-02T09:27:32.369Z,8.13
2023-04-02T09:30:29.723Z,7.72
2023-04-02T09:33:02.099Z,10.27
2023-04-02T09:35:32.409Z,9.13
2023-04-02T09:38:30.674Z,7.45
2023-04-02T09:41:05.732Z,8.73
2023-04-02T09:43:38.407Z,8.15
2023-04-02T09:46:14.051Z,6.65
2023-04-02T09:48:45.773Z,9.10
2023-04-02T09:51:21.470Z,7.93
2023-04-02T09:54:08.306Z,6.50
2023-04-02T09:56:40.494Z,6.43
2023-04-02T09:59:15.432Z,7.85
2023-04-02T10:01:57.056Z,4.90
2023-04-02T10:04:45.296Z,7.10
2023-04-02T10:07:34.793Z,7.93
2023-04-02T10:10:30.949Z,5.15
2023-04-02T10:13:09.816Z,4.47
2023-04-02T10:15:56.573Z,5.50
2023-04-02T10:18:42.113Z,6.07
2023-04-02T10:21:12.972Z,3.90
2023-04-02T10:23:40.564Z,5.80
2023-04-02T10:26:47.338Z,4.93
2023-04-02T10:29:49.316Z,4.22
2023-04-02T10:32:25.593Z,4.10
2023-04-02T10:35:11.617Z,9.65
2023-04-02T10:37:54.490Z,6.32
2023-04-02T10:40:30.875Z,7.50
2023-04-02T10:43:17.000Z,4.45
2023-04-02T10:45:56.515Z,3.50
2023-04-02T10:48:52.508Z,4.38
2023-04-02T10:51:29.416Z,6.65
2023-04-02T10:54:21.882Z,5.22
2023-04-02T10:56:53.284Z,6.57
2023-04-02T10:59:30.221Z,5.43
2023-04-02T11:02:01.018Z,4.18
2023-04-02T11:04:36.000Z,7.18
2023-04-02T11:07:14.302Z,6.03
2023-04-02T11:09:47.365Z,5.38
2023-04-02T11:12:26.283Z,6.50
2023-04-02T11:14:55.406Z,5.30
2023-04-02T11:17:25.031Z,7.38
2023-04-02T11:19:52.974Z,6.78
2023-04-02T11:22:24.862Z,6.05
2023-04-02T11:24:57.196Z,12.05
2023-04-02T11:27:31.480Z,7.85
2023-04-02T11:30:23.010Z,5.72
2023-04-02T11:32:51.437Z,5.38
2023-04-02T11:35:30.937Z,5.38
2023-04-02T11:38:23.372Z,6.18
2023-04-02T11:40:54.810Z,7.13
2023-04-02T11:43:34.659Z,7.15
2023-04-02T11:46:31.382Z,5.40
2023-04-02T11:49:51.100Z,4.70
2023-04-02T11:52:24.908Z,5.78
2023-04-02T11:55:06.082Z,5.55
2023-04-02T11:57:57.805Z,3.53
2023-04-02T12:00:45.500Z,5.60
2023-04-02T12:03:13.769Z,6.60
2023-04-02T12:05:54.708Z,4.28
2023-04-02T12:08:37.757Z,6.55
2023-04-02T12:11:09.638Z,5.78
2023-04-02T12:13:40.103Z,4.30
2023-04-02T12:16:14.735Z,3.97
2023-04-02T12:21:19.977Z,7.50
2023-04-02T12:23:50.696Z,3.67
2023-04-02T12:26:32.295Z,4.40
2023-04-02T12:29:28.750Z,3.45
2023-04-02T12:32:30.837Z,5.82
2023-04-02T12:34:58.914Z,7.20
2023-04-02T12:37:29.865Z,5.28
2023-04-02T12:40:16.675Z,5.05
2023-04-02T12:42:44.127Z,5.05
2023-04-02T12:45:22.707Z,5.90
2023-04-02T12:47:50.769Z,4.50
2023-04-02T12:50:21.724Z,6.90
2023-04-02T12:52:55.200Z,4.22
2023-04-02T12:55:25.098Z,8.07
2023-04-02T12:57:59.897Z,3.47
2023-04-02T13:00:32.197Z,6.70
2023-04-02T13:03:20.735Z,5.90
2023-04-02T13:10:00.849Z,5.03
2023-04-02T13:12:32.669Z,4.18
2023-04-02T13:15:03.312Z,4.70
2023-04-02T13:17:47.919Z,7.60
2023-04-02T13:20:27.755Z,3.30
2023-04-02T13:22:55.608Z,4.95
2023-04-02T13:25:30.970Z,4.65
2023-04-02T13:27:59.016Z,4.32
2023-04-02T13:30:28.970Z,5.93
2023-04-02T13:32:56.609Z,3.53
2023-04-02T13:35:24.141Z,2.88
2023-04-02T13:37:51.764Z,4.80
2023-04-02T13:40:19.701Z,5.05
2023-04-02T13:42:49.549Z,5.03
2023-04-02T13:45:29.055Z,4.10
2023-04-02T13:48:01.253Z,3.65
2023-04-02T13:50:31.021Z,4.75
2023-04-02T13:53:04.492Z,5.55
2023-04-02T13:55:37.703Z,3.88
2023-04-02T13:58:05.412Z,5.55
2023-04-02T14:00:36.710Z,4.38
2023-04-02T14:03:10.089Z,5.13
2023-04-02T14:06:13.416Z,4.50
2023-04-02T14:08:49.690Z,4.70
2023-04-02T14:11:29.294Z,3.60
2023-04-02T14:14:19.378Z,6.55
2023-04-02T14:17:05.560Z,3.67
2023-04-02T14:19:58.330Z,3.45
2023-04-02T14:22:50.570Z,5.95
2023-04-02T14:25:23.845Z,5.32
2023-04-02T14:28:06.832Z,3.10
2023-04-02T14:34:54.631Z,3.70
2023-04-02T14:46:34.885Z,3.63
2023-04-02T14:49:16.341Z,6.18
2023-04-02T14:52:04.856Z,2.35
2023-04-02T14:55:04.303Z,5.28
2023-04-02T14:57:41.887Z,4.80
2023-04-02T15:00:33.981Z,5.50
2023-04-02T15:07:24.197Z,6.88
2023-04-02T15:10:02.518Z,5.70
2023-04-02T15:12:36.021Z,5.55
2023-04-02T15:15:47.511Z,5.53
2023-04-02T15:18:17.270Z,4.15
2023-04-02T15:20:50.893Z,6.65
2023-04-02T15:23:40.075Z,3.97
2023-04-02T15:26:30.887Z,5.00
2023-04-02T15:30:41.806Z,13.57
2023-04-02T15:33:33.639Z,3.67
2023-04-02T15:36:11.818Z,3.85
2023-04-02T15:39:17.846Z,4.53
2023-04-02T15:42:02.622Z,4.60
2023-04-02T15:44:30.375Z,3.63
2023-04-02T15:47:15.962Z,7.40
2023-04-02T15:49:51.051Z,3.35
2023-04-02T15:52:37.367Z,3.35
2023-04-02T15:59:45.153Z,5.03
2023-04-02T16:02:37.701Z,2.97
2023-04-02T16:05:11.259Z,2.92
2023-04-02T16:11:43.764Z,5.20
2023-04-02T16:14:24.112Z,5.38
2023-04-02T16:16:53.285Z,3.45
2023-04-02T16:23:42.701Z,3.50
2023-04-02T16:30:08.500Z,3.22
2023-04-02T16:32:56.694Z,3.03
2023-04-02T16:39:47.203Z,4.13
2023-04-02T16:46:38.785Z,2.97
2023-04-02T16:49:42.672Z,4.75
2023-04-02T16:52:47.197Z,5.85
2023-04-02T16:55:29.808Z,3.30
2023-04-02T16:58:26.590Z,4.55
2023-04-02T17:01:04.884Z,4.38
2023-04-02T17:03:58.076Z,2.78
2023-04-02T17:06:47.856Z,3.17
2023-04-02T17:10:24.558Z,7.30
2023-04-02T17:13:18.072Z,2.72
2023-04-02T17:16:00.479Z,3.03
2023-04-02T17:18:28.016Z,2.53
2023-04-02T17:21:00.628Z,4.85
2023-04-02T17:23:29.711Z,2.70
2023-04-02T17:30:41.216Z,2.40
2023-04-02T17:37:52.677Z,4.25
2023-04-02T17:48:46.841Z,2.10
2023-04-02T17:52:23.598Z,4.97
2023-04-02T17:59:05.392Z,3.72
2023-04-02T18:06:11.862Z,5.55
2023-04-02T18:08:42.491Z,3.22
2023-04-02T18:11:13.651Z,4.95
2023-04-02T18:13:53.748Z,5.43
2023-04-02T18:16:42.516Z,2.55
2023-04-02T18:19:40.488Z,3.25
2023-04-02T18:22:19.245Z,2.65
2023-04-02T18:25:10.866Z,4.22
2023-04-02T18:28:16.717Z,2.65
2023-04-02T18:40:32.458Z,4.63
2023-04-02T18:46:51.335Z,4.00
2023-04-02T18:49:45.024Z,5.35
2023-04-02T18:52:17.369Z,4.03
2023-04-02T18:56:11.967Z,3.50
2023-04-02T18:59:13.600Z,2.80
2023-04-02T19:01:45.982Z,2.10
2023-04-02T19:04:28.924Z,2.78
2023-04-02T19:11:02.295Z,3.10
2023-04-02T19:13:33.329Z,3.55
2023-04-02T19:16:35.860Z,2.15
2023-04-02T19:27:47.671Z,6.82
2023-04-02T19:30:39.907Z,5.55
2023-04-02T19:37:20.099Z,3.90
2023-04-02T19:39:57.473Z,4.80
2023-04-02T19:42:46.440Z,4.88
2023-04-02T19:45:19.777Z,3.67
2023-04-02T19:47:58.764Z,5.88
2023-04-02T19:55:02.540Z,3.95
2023-04-02T19:57:29.997Z,5.15
2023-04-02T19:59:57.492Z,4.90
2023-04-02T20:02:25.435Z,3.83
2023-04-02T20:04:53.137Z,3.50
2023-04-02T20:07:20.868Z,3.08
2023-04-02T20:09:49.452Z,3.17
2023-04-02T20:12:20.763Z,4.35
2023-04-02T20:19:18.391Z,3.30
2023-04-02T20:26:15.158Z,1.42
2023-04-02T20:28:42.770Z,2.10
2023-04-02T20:31:12.997Z,2.08
2023-04-02T20:33:44.234Z,5.43
2023-04-02T20:36:14.619Z,4.32
2023-04-02T20:38:42.236Z,3.17
2023-04-02T20:41:10.926Z,1.50
2023-04-02T20:43:40.828Z,2.63
2023-04-02T20:46:10.863Z,2.05
2023-04-02T20:48:46.944Z,3.20
2023-04-02T20:51:16.621Z,4.35
2023-04-02T20:53:46.649Z,1.83
2023-04-02T20:56:17.564Z,4.90
2023-04-02T20:58:45.338Z,3.42
2023-04-02T21:01:24.953Z,1.85
2023-04-02T21:05:44.850Z,4.20
2023-04-02T21:08:13.342Z,1.63
2023-04-02T21:10:41.312Z,1.60
2023-04-02T21:13:08.768Z,2.33
2023-04-02T21:15:42.992Z,2.25
2023-04-02T21:18:11.638Z,2.22
2023-04-02T21:20:39.124Z,3.53
2023-04-02T21:23:06.491Z,6.97
2023-04-02T21:25:34.228Z,3.22
2023-04-02T21:28:01.952Z,1.50
2023-04-02T21:30:29.520Z,3.95
2023-04-02T21:32:57.711Z,4.25
2023-04-02T21:35:25.236Z,4.80
2023-04-02T21:37:52.650Z,3.72
2023-04-02T21:40:20.263Z,2.50
2023-04-02T21:42:47.764Z,3.42
2023-04-02T21:45:15.488Z,4.07
2023-04-02T21:47:44.058Z,2.50
2023-04-02T21:50:11.579Z,4.30
2023-04-02T21:52:39.032Z,3.47
2023-04-02T21:55:06.729Z,2.63
2023-04-02T21:57:34.187Z,2.38
2023-04-02T22:00:01.596Z,4.68
2023-04-02T22:02:32.022Z,3.72
2023-04-02T22:04:59.593Z,4.22
2023-04-02T22:07:27.036Z,4.03
2023-04-02T22:09:54.496Z,2.85
2023-04-02T22:12:21.968Z,4.28
2023-04-02T22:14:49.355Z,3.83
2023-04-02T22:17:16.830Z,2.00
2023-04-02T22:19:44.303Z,3.08
2023-04-02T22:22:11.723Z,2.28
2023-04-02T22:24:39.093Z,4.15
2023-04-02T22:27:06.527Z,3.45
2023-04-02T22:29:34.230Z,2.60
2023-04-02T22:32:01.717Z,4.47
2023-04-02T22:43:34.523Z,1.48
2023-04-02T22:46:02.872Z,1.95
2023-04-02T22:48:30.649Z,2.38
2023-04-02T22:50:58.044Z,1.80
2023-04-02T22:53:25.908Z,1.80
2023-04-02T22:55:53.465Z,2.40
2023-04-02T22:58:21.165Z,5.75
2023-04-02T23:00:48.918Z,2.55
2023-04-02T23:03:16.371Z,2.13
2023-04-02T23:06:24.571Z,1.35
2023-04-02T23:08:52.382Z,2.25
2023-04-02T23:11:22.620Z,2.72
2023-04-02T23:13:51.981Z,2.38
2023-04-02T23:16:20.321Z,1.92
2023-04-02T23:18:58.447Z,5.35
2023-04-02T23:30:34.924Z,2.55
2023-04-02T23:33:05.573Z,2.45
2023-04-02T23:35:33.372Z,1.95
2023-04-02T23:38:00.849Z,3.22
2023-04-02T23:40:28.217Z,4.43
2023-04-02T23:42:55.691Z,3.33
2023-04-02T23:45:23.130Z,2.00
2023-04-02T23:47:50.961Z,2.00
2023-04-02T23:50:18.561Z,2.60
2023-04-02T23:52:45.974Z,2.78
2023-04-02T23:59:45.700Z,2.88
